Time;durP1;ratioP1;P1;durP2;ratioP2;P2;SDS_P1;SDS_P2;PMS_P1;PMS_P2;Temp;Humidity;BMP_temperature;BMP_pressure;BME280_temperature;BME280_humidity;BME280_pressure;Samples;Min_cycle;Max_cycle;Signal;HPM_P1;HPM_P2
2023/10/20 00:00:14;;;;;;;7.88;5.57;;;;;;;13.37;100.00;96102.22;5059384;28;20021;-74
2023/10/20 00:02:39;;;;;;;7.20;5.03;;;;;;;13.41;100.00;96107.06;5060443;28;20217;-74
2023/10/20 00:05:05;;;;;;;7.47;5.22;;;;;;;13.36;100.00;96111.47;5066701;28;20037;-74
2023/10/20 00:07:30;;;;;;;9.02;5.55;;;;;;;13.49;100.00;96125.44;5054131;28;20035;-74
2023/10/20 00:09:56;;;;;;;10.88;5.03;;;;;;;13.43;100.00;96113.81;5052863;28;20036;-74
2023/10/20 00:12:21;;;;;;;11.00;4.78;;;;;;;13.45;100.00;96102.69;5055422;28;20072;-74
2023/10/20 00:14:46;;;;;;;8.40;4.95;;;;;;;13.42;100.00;96092.41;5036487;28;20088;-74
2023/10/20 00:17:12;;;;;;;9.02;5.13;;;;;;;13.43;100.00;96094.00;5057373;28;20033;-74
2023/10/20 00:19:38;;;;;;;7.43;5.05;;;;;;;13.44;100.00;96082.03;5051632;28;20029;-72
2023/10/20 00:22:03;;;;;;;7.53;5.20;;;;;;;13.29;100.00;96064.03;5042420;28;20064;-72
2023/10/20 00:24:29;;;;;;;8.60;4.60;;;;;;;13.45;100.00;96086.41;5054979;28;20056;-72
2023/10/20 00:26:54;;;;;;;8.52;5.13;;;;;;;13.49;100.00;96106.44;5076116;28;20029;-71
2023/10/20 00:29:19;;;;;;;6.80;5.03;;;;;;;13.43;100.00;96102.16;5036146;28;20104;-72
2023/10/20 00:31:44;;;;;;;8.02;5.10;;;;;;;13.41;100.00;96090.78;5040056;28;20021;-72
2023/10/20 00:34:10;;;;;;;6.07;4.20;;;;;;;13.43;100.00;96096.72;5057200;28;20033;-72
2023/10/20 00:36:35;;;;;;;6.57;4.97;;;;;;;13.38;100.00;96095.69;5058614;28;20017;-72
2023/10/20 00:39:00;;;;;;;6.05;4.40;;;;;;;13.48;100.00;96091.25;5067328;28;20113;-72
2023/10/20 00:41:26;;;;;;;8.23;4.35;;;;;;;13.64;100.00;96089.16;5036295;28;20107;-72
2023/10/20 00:43:51;;;;;;;9.25;4.13;;;;;;;13.66;100.00;96082.34;5042016;28;20025;-72
2023/10/20 00:46:16;;;;;;;6.20;4.38;;;;;;;13.72;100.00;96081.16;5061490;28;20029;-72
2023/10/20 00:48:42;;;;;;;8.27;4.40;;;;;;;13.64;100.00;96062.81;5054410;28;20215;-72
2023/10/20 00:51:07;;;;;;;7.97;4.47;;;;;;;13.71;100.00;96062.47;5039935;28;20352;-72
2023/10/20 00:53:37;;;;;;;7.65;4.72;;;;;;;13.62;100.00;96043.25;5056470;28;20029;-72
2023/10/20 00:56:04;;;;;;;6.75;4.45;;;;;;;13.69;100.00;96053.78;5043712;28;20013;-75
2023/10/20 00:58:31;;;;;;;7.70;4.30;;;;;;;13.72;100.00;96053.19;5047064;28;20025;-73
2023/10/20 01:00:56;;;;;;;8.05;4.50;;;;;;;13.71;100.00;96044.25;5056170;28;20031;-73
2023/10/20 01:03:22;;;;;;;7.38;4.65;;;;;;;13.65;100.00;96031.84;5036163;28;20020;-72
2023/10/20 01:05:48;;;;;;;7.28;4.00;;;;;;;13.71;100.00;96038.00;5050271;28;20196;-72
2023/10/20 01:08:17;;;;;;;6.85;4.53;;;;;;;13.70;100.00;96045.34;5046425;28;20222;-73
2023/10/20 01:10:42;;;;;;;7.22;4.07;;;;;;;13.70;100.00;96039.91;5065689;28;20032;-72
2023/10/20 01:13:08;;;;;;;11.25;4.40;;;;;;;13.70;100.00;96052.66;5060832;28;20322;-72
2023/10/20 01:15:35;;;;;;;6.30;3.95;;;;;;;13.67;100.00;96037.75;5066834;28;20028;-72
2023/10/20 01:18:00;;;;;;;5.45;3.72;;;;;;;13.74;100.00;96030.06;5041309;28;20025;-72
2023/10/20 01:20:26;;;;;;;5.55;3.53;;;;;;;13.77;100.00;96036.84;5040759;28;20422;-73
2023/10/20 01:22:51;;;;;;;5.25;3.90;;;;;;;13.77;100.00;96034.13;5056521;28;20048;-73
2023/10/20 01:25:16;;;;;;;5.32;3.20;;;;;;;13.70;100.00;96031.78;5061448;28;20024;-73
2023/10/20 01:27:42;;;;;;;9.40;3.80;;;;;;;13.58;100.00;96017.78;5061622;28;20067;-72
2023/10/20 01:30:10;;;;;;;6.75;4.13;;;;;;;13.60;100.00;96040.03;5042007;28;20091;-73
2023/10/20 01:32:35;;;;;;;9.10;4.47;;;;;;;13.49;100.00;96014.91;5059169;28;20083;-73
2023/10/20 01:35:01;;;;;;;5.78;4.18;;;;;;;13.43;100.00;96001.69;5054871;28;20028;-73
2023/10/20 01:37:26;;;;;;;9.18;4.90;;;;;;;13.40;100.00;95994.13;5055910;28;20021;-73
2023/10/20 01:39:51;;;;;;;7.43;4.65;;;;;;;13.34;100.00;95998.81;5046200;28;20225;-74
2023/10/20 01:42:17;;;;;;;6.50;4.65;;;;;;;13.26;100.00;95983.13;5061738;28;20502;-73
2023/10/20 01:44:42;;;;;;;9.15;4.88;;;;;;;13.29;100.00;95991.53;5044797;28;20029;-73
2023/10/20 01:47:07;;;;;;;11.13;4.55;;;;;;;13.29;100.00;95969.00;5046722;28;20375;-73
2023/10/20 01:49:33;;;;;;;7.97;4.45;;;;;;;13.31;100.00;95961.38;5042438;28;20043;-73
2023/10/20 01:51:58;;;;;;;6.10;3.42;;;;;;;13.40;100.00;95964.25;5047101;28;20028;-73
2023/10/20 01:54:24;;;;;;;7.13;3.60;;;;;;;13.37;100.00;95952.06;5046868;28;20026;-73
2023/10/20 01:56:50;;;;;;;6.43;3.55;;;;;;;13.28;100.00;95926.63;5046790;28;20021;-73
2023/10/20 01:59:15;;;;;;;5.50;3.72;;;;;;;13.36;100.00;95940.38;5064907;28;20047;-73
2023/10/20 02:01:40;;;;;;;8.55;4.22;;;;;;;13.35;100.00;95921.66;5042570;28;20016;-73
2023/10/20 02:04:06;;;;;;;7.03;3.78;;;;;;;13.32;100.00;95906.75;5053467;28;20377;-73
2023/10/20 02:06:31;;;;;;;6.20;4.03;;;;;;;13.33;100.00;95905.66;5044804;28;20143;-73
2023/10/20 02:08:58;;;;;;;4.70;3.45;;;;;;;13.23;100.00;95899.50;5045572;28;20092;-73
2023/10/20 02:11:23;;;;;;;7.07;3.47;;;;;;;13.23;100.00;95888.66;5055973;28;20314;-73
2023/10/20 02:13:48;;;;;;;5.82;3.33;;;;;;;13.35;100.00;95887.16;5061312;28;20028;-73
2023/10/20 02:16:14;;;;;;;7.05;3.53;;;;;;;13.23;100.00;95861.50;5045021;28;20075;-73
2023/10/20 02:18:39;;;;;;;10.00;3.95;;;;;;;13.24;100.00;95857.72;5038270;28;20373;-73
2023/10/20 02:21:05;;;;;;;6.45;4.28;;;;;;;13.30;100.00;95851.13;5057412;28;20016;-73
2023/10/20 02:23:31;;;;;;;5.88;4.45;;;;;;;13.26;100.00;95844.66;5066550;28;20031;-73
2023/10/20 02:26:01;;;;;;;5.38;4.18;;;;;;;13.23;100.00;95846.06;5065653;28;20024;-72
2023/10/20 02:28:27;;;;;;;5.18;3.78;;;;;;;13.15;100.00;95817.66;5062741;28;20025;-73
2023/10/20 02:30:56;;;;;;;7.28;3.80;;;;;;;13.15;100.00;95819.53;5061315;28;20021;-74
2023/10/20 02:33:22;;;;;;;7.80;3.90;;;;;;;13.24;100.00;95822.41;5050603;28;20066;-74
2023/10/20 02:35:47;;;;;;;7.07;3.58;;;;;;;13.21;100.00;95826.53;5041026;28;20254;-74
2023/10/20 02:38:13;;;;;;;6.55;3.30;;;;;;;13.15;100.00;95816.81;5049524;28;20017;-73
2023/10/20 02:40:39;;;;;;;5.30;2.70;;;;;;;13.22;100.00;95811.84;5026304;28;20017;-74
2023/10/20 02:43:04;;;;;;;3.92;2.35;;;;;;;13.19;100.00;95790.72;5028362;28;20143;-74
2023/10/20 02:45:30;;;;;;;6.15;2.78;;;;;;;13.27;100.00;95775.69;5047133;28;20040;-74
2023/10/20 02:47:55;;;;;;;4.78;2.70;;;;;;;13.29;100.00;95787.88;5061243;28;20023;-73
2023/10/20 02:50:20;;;;;;;4.88;2.20;;;;;;;13.24;100.00;95790.63;5049674;28;20206;-73
2023/10/20 02:52:46;;;;;;;3.50;2.13;;;;;;;13.35;100.00;95794.03;5044055;28;20021;-73
2023/10/20 02:55:12;;;;;;;5.18;2.17;;;;;;;13.41;100.00;95802.91;5054758;28;20021;-73
2023/10/20 02:57:38;;;;;;;4.88;3.17;;;;;;;13.36;100.00;95810.06;5055300;28;20048;-73
2023/10/20 03:00:04;;;;;;;6.82;3.95;;;;;;;13.23;100.00;95805.31;5050136;28;20040;-73
2023/10/20 03:02:30;;;;;;;8.80;3.85;;;;;;;13.16;100.00;95813.81;5036796;28;20031;-73
2023/10/20 03:04:56;;;;;;;8.85;3.95;;;;;;;13.12;100.00;95829.06;5053584;28;20028;-73
2023/10/20 03:07:24;;;;;;;7.30;4.07;;;;;;;13.05;100.00;95817.00;5034551;28;20025;-73
2023/10/20 03:09:51;;;;;;;10.75;5.03;;;;;;;13.03;100.00;95819.97;5054084;28;20047;-74
2023/10/20 03:12:16;;;;;;;9.57;6.40;;;;;;;12.96;100.00;95819.53;5055148;28;20088;-74
2023/10/20 03:14:41;;;;;;;13.13;6.82;;;;;;;12.93;100.00;95812.78;5038560;28;20253;-74
2023/10/20 03:17:07;;;;;;;10.38;6.35;;;;;;;13.00;100.00;95825.19;5049648;28;20017;-74
2023/10/20 03:19:32;;;;;;;14.02;6.28;;;;;;;12.92;100.00;95813.09;5055101;28;20028;-74
2023/10/20 03:21:57;;;;;;;11.95;6.63;;;;;;;12.90;100.00;95807.94;5062982;28;20088;-74
2023/10/20 03:24:23;;;;;;;9.52;6.20;;;;;;;12.90;100.00;95807.94;5066219;28;20122;-74
2023/10/20 03:26:49;;;;;;;14.25;6.97;;;;;;;12.92;100.00;95813.09;5036642;28;20033;-74
2023/10/20 03:29:14;;;;;;;10.52;6.43;;;;;;;12.88;100.00;95810.13;5037160;28;20036;-74
2023/10/20 03:31:40;;;;;;;11.68;6.60;;;;;;;12.97;100.00;95806.75;5052271;28;20040;-74
2023/10/20 03:34:05;;;;;;;19.23;6.38;;;;;;;12.95;100.00;95788.06;5052164;28;20029;-74
2023/10/20 03:36:31;;;;;;;8.38;6.05;;;;;;;12.96;100.00;95776.09;5060430;28;20031;-74
2023/10/20 03:38:56;;;;;;;10.93;6.00;;;;;;;12.99;100.00;95777.44;5033785;28;20025;-74
2023/10/20 03:41:22;;;;;;;10.52;5.40;;;;;;;12.99;100.00;95767.38;5037427;28;20020;-74
2023/10/20 03:43:47;;;;;;;9.82;5.55;;;;;;;12.93;100.00;95750.38;5054390;28;20340;-74
2023/10/20 03:46:13;;;;;;;10.38;5.47;;;;;;;12.89;100.00;95746.66;5037548;28;20025;-75
2023/10/20 03:48:40;;;;;;;7.57;5.47;;;;;;;12.94;100.00;95765.56;5055373;28;20056;-74
2023/10/20 03:51:10;;;;;;;10.02;4.78;;;;;;;12.98;100.00;95760.34;5036570;28;20375;-73
2023/10/20 03:53:52;;;;;;;7.93;5.03;;;;;;;13.09;100.00;95769.16;5048990;28;20016;-74
2023/10/20 03:56:19;;;;;;;8.18;5.00;;;;;;;13.11;100.00;95756.09;5034556;28;20017;-74
2023/10/20 03:58:46;;;;;;;7.47;5.03;;;;;;;13.10;100.00;95744.44;5050500;28;20483;-77
2023/10/20 04:01:11;;;;;;;13.98;5.63;;;;;;;13.05;100.00;95722.00;5056116;28;20037;-77
2023/10/20 04:03:38;;;;;;;7.65;4.88;;;;;;;13.06;100.00;95729.03;5059115;28;20048;-74
2023/10/20 04:06:11;;;;;;;8.13;4.68;;;;;;;13.11;100.00;95728.94;5040766;28;20025;-77
2023/10/20 04:08:37;;;;;;;9.73;4.60;;;;;;;13.11;100.00;95724.31;5040774;28;20025;-78
2023/10/20 04:11:02;;;;;;;10.60;4.80;;;;;;;13.02;100.00;95690.00;5043514;28;20044;-79
2023/10/20 04:13:29;;;;;;;12.68;4.43;;;;;;;13.11;100.00;95693.66;5058428;28;20195;-79
2023/10/20 04:15:54;;;;;;;7.45;3.78;;;;;;;12.96;100.00;95651.28;5034087;28;20021;-78
2023/10/20 04:18:20;;;;;;;9.25;3.67;;;;;;;13.15;100.00;95662.09;5034277;28;20017;-78
2023/10/20 04:20:49;;;;;;;7.82;3.28;;;;;;;13.22;100.00;95653.59;5068671;28;20092;-77
2023/10/20 04:23:16;;;;;;;7.70;2.45;;;;;;;13.30;100.00;95648.31;5028582;28;20025;-77
2023/10/20 04:25:55;;;;;;;4.78;2.90;;;;;;;13.27;100.00;95648.09;5034494;28;20024;-78
2023/10/20 04:28:28;;;;;;;7.57;3.30;;;;;;;13.32;100.00;95643.38;5045470;28;20217;-78
2023/10/20 05:08:05;;;;;;;8.00;3.70;;;;;;;13.20;100.00;95501.06;5057081;28;20298;-79
2023/10/20 05:10:31;;;;;;;7.60;3.38;;;;;;;13.13;100.00;95472.41;5046632;28;20074;-77
2023/10/20 05:12:56;;;;;;;7.97;3.45;;;;;;;13.13;100.00;95467.00;5041410;28;20315;-78
2023/10/20 05:15:21;;;;;;;6.45;3.72;;;;;;;13.14;100.00;95454.22;5056988;28;20021;-77
2023/10/20 05:17:47;;;;;;;7.07;3.63;;;;;;;13.09;100.00;95435.31;5047904;28;20028;-76
2023/10/20 05:20:19;;;;;;;8.48;3.67;;;;;;;13.11;100.00;95435.81;5049114;28;20108;-78
2023/10/20 05:22:45;;;;;;;8.52;3.00;;;;;;;13.20;100.00;95442.13;5040258;28;20051;-76
2023/10/20 05:25:11;;;;;;;6.38;2.97;;;;;;;13.13;100.00;95425.47;5059576;28;20325;-79
2023/10/20 05:27:37;;;;;;;4.75;3.30;;;;;;;13.13;100.00;95423.56;5043273;28;20016;-77
2023/10/20 05:30:03;;;;;;;9.73;3.00;;;;;;;13.13;100.00;95396.41;5042043;28;20037;-80
2023/10/20 05:32:31;;;;;;;6.40;3.63;;;;;;;13.08;100.00;95387.59;5034021;28;20285;-74
2023/10/20 05:34:58;;;;;;;5.13;3.50;;;;;;;13.06;100.00;95381.66;5056641;28;20021;-75
2023/10/20 05:37:24;;;;;;;6.00;3.65;;;;;;;13.08;100.00;95387.59;5042599;28;20020;-74
2023/10/20 05:39:49;;;;;;;5.75;3.58;;;;;;;12.98;100.00;95366.09;5038832;28;20322;-78
2023/10/20 05:42:16;;;;;;;5.75;3.22;;;;;;;13.06;100.00;95358.03;5055092;28;20244;-81
2023/10/20 05:44:58;;;;;;;4.45;3.22;;;;;;;13.06;100.00;95358.03;5043274;28;20029;-77
2023/10/20 05:47:24;;;;;;;6.28;2.78;;;;;;;13.10;100.00;95341.94;5086811;23;20049;-78
2023/10/20 05:49:50;;;;;;;6.43;2.90;;;;;;;13.15;100.00;95361.63;5008147;28;20042;-75
2023/10/20 05:52:15;;;;;;;7.43;3.53;;;;;;;13.15;100.00;95360.81;5032165;28;20089;-76
2023/10/20 05:54:42;;;;;;;8.13;3.65;;;;;;;13.20;100.00;95363.41;5039688;28;20029;-77
2023/10/20 05:57:07;;;;;;;10.02;4.65;;;;;;;13.16;100.00;95357.00;5010826;28;20107;-78
2023/10/20 05:59:32;;;;;;;6.32;3.75;;;;;;;13.14;100.00;95338.31;5044743;28;20030;-74
2023/10/20 06:02:04;;;;;;;7.82;3.65;;;;;;;13.13;100.00;95306.06;5042540;28;20392;-79
2023/10/20 06:04:29;;;;;;;7.32;3.80;;;;;;;13.12;100.00;95290.88;5025316;28;20021;-77
2023/10/20 06:06:56;;;;;;;4.30;3.38;;;;;;;13.18;100.00;95335.81;5026710;28;20345;-78
2023/10/20 06:09:24;;;;;;;6.93;3.75;;;;;;;13.15;100.00;95347.25;5026962;28;20035;-78
2023/10/20 06:11:50;;;;;;;4.55;3.50;;;;;;;13.09;100.00;95329.47;5043018;28;20068;-78
2023/10/20 06:14:15;;;;;;;8.57;3.65;;;;;;;13.12;100.00;95316.09;5030676;28;20041;-73
2023/10/20 06:16:42;;;;;;;5.93;4.13;;;;;;;13.08;100.00;95296.09;5032608;28;20044;-72
2023/10/20 06:19:07;;;;;;;5.63;3.63;;;;;;;13.09;100.00;95302.34;5020751;28;20029;-73
2023/10/20 06:21:32;;;;;;;7.50;3.85;;;;;;;13.08;100.00;95287.97;5022806;28;20021;-73
2023/10/20 06:23:57;;;;;;;5.55;3.67;;;;;;;13.05;100.00;95277.72;5040627;28;20029;-73
2023/10/20 06:26:23;;;;;;;8.93;4.00;;;;;;;13.01;100.00;95259.66;5021908;28;20222;-73
2023/10/20 06:28:48;;;;;;;4.82;3.55;;;;;;;13.03;100.00;95241.94;5040715;28;20101;-72
2023/10/20 06:31:41;;;;;;;7.55;4.20;;;;;;;13.04;100.00;95248.16;5043337;28;20277;-72
2023/10/20 06:34:26;;;;;;;5.40;3.80;;;;;;;13.07;100.00;95242.97;5041152;28;20028;-72
2023/10/20 06:37:01;;;;;;;7.45;4.22;;;;;;;13.04;100.00;95243.53;5034679;28;20035;-75
2023/10/20 06:39:27;;;;;;;6.30;4.13;;;;;;;13.13;100.00;95244.44;5020520;28;20341;-77
2023/10/20 06:41:52;;;;;;;9.25;4.45;;;;;;;13.15;100.00;95263.94;5043768;28;20092;-76
2023/10/20 06:44:18;;;;;;;8.85;4.75;;;;;;;13.22;100.00;95240.97;5042655;28;20033;-76
2023/10/20 06:46:43;;;;;;;8.15;3.83;;;;;;;13.32;100.00;95219.84;5040094;28;20029;-77
2023/10/20 06:49:08;;;;;;;7.10;4.40;;;;;;;13.27;100.00;95194.75;5039198;28;20330;-78
2023/10/20 06:51:34;;;;;;;8.02;4.82;;;;;;;13.26;100.00;95193.13;5027892;28;20028;-80
2023/10/20 06:53:59;;;;;;;8.27;4.93;;;;;;;13.27;100.00;95176.53;5045378;28;20021;-79
2023/10/20 06:56:25;;;;;;;7.45;5.10;;;;;;;13.35;100.00;95159.50;5042280;28;20014;-80
2023/10/20 06:58:50;;;;;;;8.25;5.82;;;;;;;13.39;100.00;95156.97;5019134;28;20021;-80
2023/10/20 07:01:15;;;;;;;8.35;5.10;;;;;;;13.47;100.00;95161.66;5031395;28;20318;-78
2023/10/20 07:03:40;;;;;;;10.45;5.85;;;;;;;13.51;100.00;95169.97;5026624;28;20036;-72
2023/10/20 07:06:10;;;;;;;8.25;5.75;;;;;;;13.53;100.00;95148.75;5026505;28;20040;-76
2023/10/20 07:08:36;;;;;;;9.05;5.30;;;;;;;13.73;100.00;95136.53;5024553;28;20032;-76
2023/10/20 07:11:03;;;;;;;6.57;5.15;;;;;;;13.90;100.00;95109.41;5039404;28;20022;-74
2023/10/20 07:13:33;;;;;;;9.32;4.75;;;;;;;14.01;100.00;95101.78;5022102;28;20053;-74
2023/10/20 07:16:00;;;;;;;8.40;5.47;;;;;;;14.11;100.00;95103.41;5036189;28;20085;-72
2023/10/20 07:18:26;;;;;;;9.48;4.85;;;;;;;14.14;100.00;95105.47;5039970;28;20210;-73
2023/10/20 07:20:52;;;;;;;6.63;4.63;;;;;;;14.21;100.00;95092.22;5025596;28;20029;-76
2023/10/20 07:23:18;;;;;;;8.90;5.18;;;;;;;14.41;100.00;95079.94;5040805;28;20033;-76
2023/10/20 07:25:43;;;;;;;7.35;4.50;;;;;;;14.43;100.00;95069.53;5026368;28;20028;-76
2023/10/20 07:28:08;;;;;;;7.18;4.75;;;;;;;14.52;100.00;95080.44;5035166;28;20089;-77
2023/10/20 07:30:34;;;;;;;9.70;5.50;;;;;;;14.58;100.00;95066.38;5019635;28;20032;-78
2023/10/20 07:33:00;;;;;;;10.10;5.60;;;;;;;14.48;100.00;95062.00;5024362;28;20021;-78
2023/10/20 07:35:25;;;;;;;7.45;5.00;;;;;;;14.37;100.00;95073.53;5025026;28;20045;-76
2023/10/20 07:37:50;;;;;;;10.73;4.78;;;;;;;14.28;100.00;95075.44;5042214;28;20025;-75
2023/10/20 07:40:15;;;;;;;10.10;5.53;;;;;;;14.39;100.00;95076.75;5043203;28;20067;-74
2023/10/20 07:42:42;;;;;;;9.82;6.18;;;;;;;14.38;100.00;95086.00;5036343;28;20092;-76
2023/10/20 07:45:07;;;;;;;9.82;5.80;;;;;;;14.39;100.00;95079.47;5038318;28;20344;-76
2023/10/20 07:47:33;;;;;;;11.80;5.60;;;;;;;14.42;100.00;95073.38;5025297;28;20021;-78
2023/10/20 07:49:58;;;;;;;10.88;5.85;;;;;;;14.55;100.00;95072.44;5015830;28;20061;-76
2023/10/20 07:52:25;;;;;;;10.15;6.10;;;;;;;14.60;100.00;95060.63;5038701;28;20041;-75
2023/10/20 07:54:50;;;;;;;8.95;5.80;;;;;;;14.69;100.00;95059.47;5038456;28;20078;-76
2023/10/20 07:57:18;;;;;;;8.85;6.00;;;;;;;14.82;100.00;95046.00;5020068;28;20034;-74
2023/10/20 07:59:44;;;;;;;11.93;6.63;;;;;;;14.87;100.00;95035.75;5027576;28;20028;-77
2023/10/20 08:02:10;;;;;;;8.85;5.90;;;;;;;14.93;100.00;95047.28;5017402;28;20032;-74
2023/10/20 08:04:36;;;;;;;8.77;5.72;;;;;;;15.07;100.00;95044.38;5020237;28;20022;-76
2023/10/20 08:07:02;;;;;;;9.82;5.85;;;;;;;15.15;100.00;95061.81;5039627;28;20032;-75
2023/10/20 08:09:28;;;;;;;9.20;5.40;;;;;;;15.10;100.00;95035.56;5042907;28;20024;-74
2023/10/20 08:11:54;;;;;;;13.18;6.18;;;;;;;15.18;100.00;95048.34;5039360;28;20029;-76
2023/10/20 08:14:23;;;;;;;9.95;6.07;;;;;;;15.16;100.00;95055.22;5042028;28;20047;-75
2023/10/20 08:16:49;;;;;;;9.67;5.73;;;;;;;15.11;100.00;95057.00;5011321;28;20510;-74
2023/10/20 08:19:14;;;;;;;9.00;5.38;;;;;;;15.28;100.00;95061.59;5045551;28;20017;-73
2023/10/20 08:21:40;;;;;;;9.00;5.82;;;;;;;15.27;100.00;95064.66;5030206;28;20084;-75
2023/10/20 08:24:06;;;;;;;9.10;5.38;;;;;;;15.27;100.00;95072.81;5050336;28;20353;-77
2023/10/20 08:26:32;;;;;;;8.15;5.50;;;;;;;15.15;100.00;95067.25;5038989;28;20017;-77
2023/10/20 08:28:57;;;;;;;10.15;6.32;;;;;;;15.30;100.00;95077.59;5014241;28;20026;-78
2023/10/20 08:31:23;;;;;;;9.32;5.75;;;;;;;15.19;100.00;95087.25;5019397;28;20421;-77
2023/10/20 08:33:51;;;;;;;11.10;5.60;;;;;;;15.19;100.00;95092.69;5038999;28;20044;-75
2023/10/20 08:36:20;;;;;;;7.55;5.72;;;;;;;15.32;100.00;95111.56;5040296;28;20068;-76
2023/10/20 08:38:48;;;;;;;9.07;5.57;;;;;;;15.36;100.00;95113.66;5023808;28;20322;-74
2023/10/20 08:41:15;;;;;;;12.75;5.82;;;;;;;15.48;100.00;95120.03;5022540;28;20033;-77
2023/10/20 08:43:42;;;;;;;8.90;5.53;;;;;;;15.48;100.00;95120.03;5036602;28;20234;-75
2023/10/20 08:46:08;;;;;;;9.18;6.13;;;;;;;15.45;100.00;95122.59;5041247;28;20075;-74
2023/10/20 08:48:56;;;;;;;9.23;5.90;;;;;;;15.45;100.00;95139.72;5041443;28;20256;-77
2023/10/20 08:51:21;;;;;;;8.10;5.68;;;;;;;15.44;100.00;95138.16;5019697;28;20029;-78
2023/10/20 08:53:47;;;;;;;11.27;6.55;;;;;;;15.58;100.00;95167.91;5041355;28;20337;-78
2023/10/20 08:56:13;;;;;;;10.05;6.20;;;;;;;15.60;100.00;95157.50;5022536;28;20029;-76
2023/10/20 08:58:38;;;;;;;10.70;6.38;;;;;;;15.66;100.00;95177.19;5018198;28;20017;-76
2023/10/20 09:01:05;;;;;;;11.35;6.22;;;;;;;15.68;100.00;95147.69;5039250;28;20044;-76
2023/10/20 09:03:42;;;;;;;9.23;6.00;;;;;;;15.80;100.00;95182.47;5040142;28;20222;-71
2023/10/20 09:06:12;;;;;;;7.97;6.03;;;;;;;15.73;100.00;95188.44;5039491;28;20092;-75
2023/10/20 09:08:38;;;;;;;10.15;6.40;;;;;;;15.70;100.00;95238.13;5018150;28;20040;-76
2023/10/20 09:11:11;;;;;;;9.75;6.53;;;;;;;15.61;100.00;95261.81;5023977;28;20029;-76
2023/10/20 09:13:39;;;;;;;9.55;5.72;;;;;;;15.68;100.00;95262.94;5040661;28;20025;-75
2023/10/20 09:16:07;;;;;;;7.95;5.28;;;;;;;15.56;100.00;95299.03;5032139;28;20041;-75
2023/10/20 09:18:53;;;;;;;8.02;5.82;;;;;;;15.48;100.00;95305.28;5040036;28;20025;-76
2023/10/20 09:21:24;;;;;;;10.90;6.32;;;;;;;15.72;100.00;95314.94;5039884;28;20278;-77
2023/10/20 09:23:57;;;;;;;13.60;6.95;;;;;;;15.83;100.00;95321.63;5041793;28;20052;-76
2023/10/20 09:26:25;;;;;;;10.30;7.05;;;;;;;15.75;100.00;95328.69;5021530;28;20034;-76
2023/10/20 09:28:53;;;;;;;13.73;7.13;;;;;;;15.51;100.00;95320.97;5043824;28;20032;-72
2023/10/20 09:31:20;;;;;;;11.57;7.28;;;;;;;15.61;100.00;95316.31;5044898;28;20033;-72
2023/10/20 09:33:46;;;;;;;12.98;7.28;;;;;;;15.65;100.00;95325.47;5043829;28;20033;-73
2023/10/20 09:36:12;;;;;;;13.15;7.57;;;;;;;15.79;100.00;95307.03;5024192;28;20096;-72
2023/10/20 09:38:38;;;;;;;12.15;7.35;;;;;;;16.11;100.00;95300.25;5042814;28;20029;-72
2023/10/20 09:41:12;;;;;;;15.70;8.38;;;;;;;16.22;100.00;95289.81;5046558;28;20041;-73
2023/10/20 09:43:46;;;;;;;11.38;7.75;;;;;;;16.13;100.00;95283.56;5043411;28;20028;-73
2023/10/20 09:46:36;;;;;;;10.55;7.45;;;;;;;15.96;100.00;95298.06;5043339;28;20032;-73
2023/10/20 09:49:14;;;;;;;11.45;7.40;;;;;;;16.00;100.00;95299.78;5039230;28;20048;-73
2023/10/20 09:51:42;;;;;;;12.57;7.60;;;;;;;16.27;100.00;95294.25;5041066;28;20025;-72
2023/10/20 09:54:08;;;;;;;8.82;6.05;;;;;;;17.15;100.00;95270.91;5027984;28;20031;-74
2023/10/20 09:56:34;;;;;;;12.25;6.70;;;;;;;17.96;100.00;95280.53;5023609;28;20017;-73
2023/10/20 09:59:02;;;;;;;8.35;6.22;;;;;;;18.28;100.00;95286.31;5040784;28;20021;-72
2023/10/20 10:01:30;;;;;;;14.02;6.93;;;;;;;17.69;100.00;95304.56;5044029;28;20033;-74
2023/10/20 10:04:03;;;;;;;10.93;6.80;;;;;;;17.44;100.00;95305.56;5042969;28;20021;-74
2023/10/20 10:06:36;;;;;;;10.75;7.20;;;;;;;17.73;100.00;95326.53;5034272;28;20026;-74
2023/10/20 10:09:04;;;;;;;11.98;6.55;;;;;;;18.49;100.00;95330.03;5029755;28;20097;-75
2023/10/20 10:11:31;;;;;;;10.52;7.18;;;;;;;19.37;100.00;95311.34;5051281;28;20067;-74
2023/10/20 10:14:01;;;;;;;10.25;6.60;;;;;;;19.35;100.00;95327.34;5053479;28;20029;-75
2023/10/20 10:16:27;;;;;;;9.27;6.30;;;;;;;18.22;100.00;95342.41;5047404;28;20233;-75
2023/10/20 10:18:54;;;;;;;12.60;6.97;;;;;;;17.57;100.00;95350.97;5049755;28;20028;-75
2023/10/20 10:21:29;;;;;;;15.30;7.45;;;;;;;17.41;100.00;95339.81;5036358;28;20029;-75
2023/10/20 10:24:07;;;;;;;11.70;7.70;;;;;;;17.37;100.00;95341.63;5032413;28;20060;-75
2023/10/20 10:26:33;;;;;;;10.38;7.30;;;;;;;17.32;100.00;95341.81;5036197;28;20322;-74
2023/10/20 10:28:58;;;;;;;11.23;6.80;;;;;;;17.17;100.00;95345.13;5054370;28;20040;-77
2023/10/20 10:31:34;;;;;;;12.00;7.10;;;;;;;17.45;100.00;95364.56;5050240;28;20056;-74
2023/10/20 10:34:01;;;;;;;12.85;6.95;;;;;;;17.48;100.00;95367.44;5043965;28;20021;-74
2023/10/20 10:36:26;;;;;;;12.73;7.43;;;;;;;17.55;100.00;95377.03;5021809;28;20029;-75
2023/10/20 10:38:51;;;;;;;10.95;7.10;;;;;;;17.65;100.00;95373.91;5038475;28;20187;-75
2023/10/20 10:41:23;;;;;;;13.38;6.97;;;;;;;17.75;100.00;95379.75;5040291;28;20025;-75
2023/10/20 10:43:54;;;;;;;9.57;6.43;;;;;;;17.81;100.00;95363.19;5020570;28;20134;-74
2023/10/20 10:46:19;;;;;;;9.52;6.63;;;;;;;18.11;100.00;95369.38;5040434;28;20037;-75
2023/10/20 10:48:45;;;;;;;15.55;6.72;;;;;;;18.03;100.00;95362.84;5037779;28;20242;-75
2023/10/20 10:51:10;;;;;;;13.85;7.65;;;;;;;18.39;100.00;95367.66;5037875;28;20081;-75
2023/10/20 10:53:38;;;;;;;18.35;8.07;;;;;;;18.61;100.00;95369.19;5040548;28;20060;-75
2023/10/20 10:56:05;;;;;;;11.90;7.82;;;;;;;18.67;100.00;95377.19;5022588;28;20052;-75
2023/10/20 10:58:30;;;;;;;11.45;7.43;;;;;;;18.34;100.00;95388.97;5020581;28;20039;-74
2023/10/20 11:00:56;;;;;;;11.50;6.20;;;;;;;18.02;100.00;95388.59;5037549;28;20031;-75
2023/10/20 11:03:22;;;;;;;8.65;6.35;;;;;;;17.74;100.00;95389.13;5038865;28;20264;-76
2023/10/20 11:05:48;;;;;;;8.93;6.03;;;;;;;17.59;100.00;95397.91;5043210;28;20085;-74
2023/10/20 11:08:13;;;;;;;8.80;5.25;;;;;;;17.72;100.00;95388.63;5022753;28;20032;-75
2023/10/20 11:10:43;;;;;;;8.90;4.90;;;;;;;17.83;100.00;95388.28;5025827;28;20025;-75
2023/10/20 11:13:10;;;;;;;5.93;4.38;;;;;;;17.84;100.00;95381.66;5036356;28;20216;-75
2023/10/20 11:15:36;;;;;;;7.07;5.18;;;;;;;17.95;100.00;95389.13;5041999;28;20020;-75
2023/10/20 11:18:06;;;;;;;8.90;5.18;;;;;;;18.07;100.00;95399.31;5042040;28;20031;-75
2023/10/20 11:20:37;;;;;;;7.88;4.32;;;;;;;18.14;100.00;95391.38;5039000;28;20025;-77
2023/10/20 11:23:05;;;;;;;6.93;4.15;;;;;;;18.22;100.00;95410.81;5039585;28;20036;-75
2023/10/20 11:25:30;;;;;;;5.50;3.97;;;;;;;18.13;100.00;95416.31;5042647;28;20063;-75
2023/10/20 11:27:56;;;;;;;5.32;3.60;;;;;;;18.15;100.00;95420.34;5036569;28;20030;-76
2023/10/20 11:30:24;;;;;;;5.85;3.53;;;;;;;17.81;100.00;95424.13;5039343;28;20093;-75
2023/10/20 11:32:51;;;;;;;8.18;3.80;;;;;;;17.98;100.00;95425.97;5015567;28;20100;-75
2023/10/20 11:35:16;;;;;;;6.10;3.70;;;;;;;17.74;100.00;95424.66;5042460;28;20091;-75
2023/10/20 11:37:41;;;;;;;7.20;3.92;;;;;;;17.45;100.00;95441.09;5022674;28;20014;-75
2023/10/20 11:40:08;;;;;;;5.63;3.63;;;;;;;17.33;100.00;95449.19;5040189;28;20319;-75
2023/10/20 11:42:33;;;;;;;6.35;2.88;;;;;;;17.47;100.00;95455.19;5038651;28;20048;-78
2023/10/20 11:45:00;;;;;;;4.63;2.90;;;;;;;17.54;100.00;95450.03;5032074;28;20314;-76
2023/10/20 11:49:54;;;;;;;5.63;2.90;;;;;;;17.91;100.00;95436.63;5039141;28;20056;-69
2023/10/20 11:52:22;;;;;;;3.42;2.70;;;;;;;17.84;100.00;95450.03;5037685;28;20032;-69
2023/10/20 11:54:48;;;;;;;7.60;2.65;;;;;;;17.67;100.00;95440.78;5030057;28;20021;-69
2023/10/20 11:57:14;;;;;;;5.30;2.70;;;;;;;17.56;100.00;95455.97;5040489;28;20036;-71
2023/10/20 11:59:40;;;;;;;4.30;2.50;;;;;;;17.43;100.00;95460.53;4999825;28;20022;-71
2023/10/20 12:02:05;;;;;;;3.38;2.50;;;;;;;17.20;100.00;95454.53;5016421;28;20129;-71